createdAt,value
2023-04-30T00:01:07.872Z,13.57
2023-04-30T00:02:39.223Z,13.80
2023-04-30T00:04:10.830Z,12.67
2023-04-30T00:05:42.313Z,13.96
2023-04-30T00:07:13.521Z,14.21
2023-04-30T00:08:44.876Z,12.30
2023-04-30T00:10:16.118Z,13.22
2023-04-30T00:11:47.575Z,13.07
2023-04-30T00:13:19.549Z,14.20
2023-04-30T00:14:50.940Z,13.13
2023-04-30T00:16:22.334Z,14.31
2023-04-30T00:17:53.860Z,14.97
2023-04-30T00:19:25.151Z,14.76
2023-04-30T00:20:56.484Z,14.51
2023-04-30T00:22:27.927Z,14.36
2023-04-30T00:23:59.478Z,13.88
2023-04-30T00:25:30.694Z,15.18
2023-04-30T00:27:02.170Z,14.70
2023-04-30T00:28:33.580Z,14.97
2023-04-30T00:30:05.503Z,14.37
2023-04-30T00:31:37.005Z,15.85
2023-04-30T00:33:08.340Z,14.61
2023-04-30T00:34:39.629Z,16.28
2023-04-30T00:36:10.867Z,15.66
2023-04-30T00:37:42.126Z,14.19
2023-04-30T00:39:13.534Z,15.16
2023-04-30T00:40:45.099Z,14.09
2023-04-30T00:42:16.759Z,16.48
2023-04-30T00:43:48.059Z,14.80
2023-04-30T00:45:19.619Z,14.74
2023-04-30T00:46:50.942Z,15.27
2023-04-30T00:48:23.031Z,14.73
2023-04-30T00:49:54.768Z,13.32
2023-04-30T00:51:26.337Z,15.63
2023-04-30T00:52:57.979Z,14.89
2023-04-30T00:54:29.414Z,14.30
2023-04-30T00:56:01.692Z,16.06
2023-04-30T00:57:33.107Z,16.72
2023-04-30T00:59:04.635Z,18.02
2023-04-30T01:00:35.958Z,16.99
2023-04-30T01:02:07.313Z,13.92
2023-04-30T01:03:38.790Z,14.64
2023-04-30T01:05:10.656Z,14.25
2023-04-30T01:06:42.092Z,15.91
2023-04-30T01:08:13.351Z,14.46
2023-04-30T01:09:44.720Z,16.42
2023-04-30T01:11:16.447Z,14.82
2023-04-30T01:12:48.162Z,14.74
2023-04-30T01:14:19.479Z,16.65
2023-04-30T01:15:51.130Z,16.11
2023-04-30T01:17:22.447Z,16.20
2023-04-30T01:18:59.325Z,15.45
2023-04-30T01:20:30.873Z,13.37
2023-04-30T01:22:02.196Z,13.63
2023-04-30T01:23:33.955Z,17.27
2023-04-30T01:25:05.318Z,14.31
2023-04-30T01:26:36.666Z,17.07
2023-04-30T01:28:07.973Z,17.18
2023-04-30T01:29:39.333Z,15.80
2023-04-30T01:31:10.912Z,16.59
2023-04-30T01:32:42.281Z,15.80
2023-04-30T01:34:13.655Z,15.98
2023-04-30T01:35:45.071Z,16.85
2023-04-30T01:37:16.369Z,15.33
2023-04-30T01:38:47.972Z,15.35
2023-04-30T01:40:19.321Z,15.16
2023-04-30T01:41:50.620Z,14.64
2023-04-30T01:43:21.857Z,16.45
2023-04-30T01:44:53.481Z,15.28
2023-04-30T01:46:25.001Z,15.59
2023-04-30T01:47:56.705Z,17.50
2023-04-30T01:49:27.981Z,15.74
2023-04-30T01:50:59.597Z,15.80
2023-04-30T01:52:31.396Z,20.60
2023-04-30T01:54:02.721Z,17.61
2023-04-30T01:55:34.015Z,18.41
2023-04-30T01:57:05.530Z,16.55
2023-04-30T01:58:36.846Z,18.39
2023-04-30T02:00:09.854Z,18.30
2023-04-30T02:01:42.552Z,18.28
2023-04-30T02:03:14.040Z,17.54
2023-04-30T02:04:46.121Z,17.28
2023-04-30T02:06:17.462Z,19.21
2023-04-30T02:07:48.904Z,17.58
2023-04-30T02:09:20.302Z,18.16
2023-04-30T02:10:51.713Z,17.34
2023-04-30T02:12:23.066Z,18.15
2023-04-30T02:13:54.454Z,18.82
2023-04-30T02:15:25.825Z,18.32
2023-04-30T02:16:57.095Z,18.06
2023-04-30T02:18:29.060Z,19.98
2023-04-30T02:20:00.581Z,19.02
2023-04-30T02:21:31.939Z,21.51
2023-04-30T02:23:03.300Z,18.69
2023-04-30T02:24:34.596Z,20.43
2023-04-30T02:26:05.904Z,20.12
2023-04-30T02:27:37.223Z,22.11
2023-04-30T02:29:08.521Z,22.58
2023-04-30T02:30:40.917Z,22.10
2023-04-30T02:32:12.312Z,22.74
2023-04-30T02:33:43.875Z,23.04
2023-04-30T02:35:15.140Z,23.41
2023-04-30T02:36:48.180Z,22.59
2023-04-30T02:38:20.944Z,24.50
2023-04-30T02:39:52.485Z,23.27
2023-04-30T02:41:23.899Z,22.77
2023-04-30T02:42:55.188Z,22.64
2023-04-30T02:44:26.697Z,21.86
2023-04-30T02:45:58.199Z,22.76
2023-04-30T02:47:29.557Z,24.69
2023-04-30T02:49:00.998Z,23.75
2023-04-30T02:50:32.172Z,22.46
2023-04-30T02:52:03.410Z,24.35
2023-04-30T02:53:35.040Z,21.48
2023-04-30T02:55:06.317Z,22.80
2023-04-30T02:56:37.641Z,21.85
2023-04-30T02:58:09.037Z,23.35
2023-04-30T02:59:40.376Z,23.60
2023-04-30T03:01:11.689Z,23.93
2023-04-30T03:02:43.303Z,24.34
2023-04-30T03:04:15.074Z,25.89
2023-04-30T03:05:46.409Z,24.58
2023-04-30T03:07:17.680Z,24.66
2023-04-30T03:08:49.090Z,21.94
2023-04-30T03:10:20.345Z,22.07
2023-04-30T03:11:51.629Z,21.96
2023-04-30T03:13:23.116Z,20.93
2023-04-30T03:14:54.527Z,19.40
2023-04-30T03:16:25.883Z,20.78
2023-04-30T03:17:57.267Z,20.00
2023-04-30T03:19:28.520Z,20.82
2023-04-30T03:20:59.957Z,20.87
2023-04-30T03:22:31.308Z,17.81
2023-04-30T03:24:02.578Z,19.24
2023-04-30T03:25:33.887Z,17.17
2023-04-30T03:27:05.551Z,17.82
2023-04-30T03:28:37.007Z,19.41
2023-04-30T03:30:08.484Z,20.07
2023-04-30T03:31:39.844Z,18.72
2023-04-30T03:33:11.434Z,18.86
2023-04-30T03:34:42.901Z,18.60
2023-04-30T03:36:14.506Z,18.46
2023-04-30T03:37:45.793Z,18.57
2023-04-30T03:39:17.103Z,19.86
2023-04-30T03:40:48.893Z,19.42
2023-04-30T03:42:20.232Z,19.73
2023-04-30T03:43:51.541Z,21.80
2023-04-30T03:45:22.800Z,21.24
2023-04-30T03:46:54.044Z,21.26
2023-04-30T03:48:25.325Z,20.34
2023-04-30T03:49:57.080Z,21.38
2023-04-30T03:51:28.446Z,22.21
2023-04-30T03:52:59.857Z,23.91
2023-04-30T03:54:31.461Z,22.07
2023-04-30T03:56:03.523Z,22.51
2023-04-30T03:57:34.851Z,23.82
2023-04-30T03:59:06.040Z,24.50
2023-04-30T04:00:37.329Z,23.32
2023-04-30T04:02:08.811Z,24.16
2023-04-30T04:03:40.522Z,23.50
2023-04-30T04:05:12.343Z,24.84
2023-04-30T04:06:43.680Z,23.60
2023-04-30T04:08:15.170Z,25.00
2023-04-30T04:09:46.547Z,27.80
2023-04-30T04:11:17.839Z,23.99
2023-04-30T04:12:49.054Z,26.19
2023-04-30T04:14:20.350Z,24.28
2023-04-30T04:15:51.622Z,23.39
2023-04-30T04:17:22.907Z,23.66
2023-04-30T04:18:54.252Z,24.05
2023-04-30T04:20:25.483Z,23.98
2023-04-30T04:21:56.715Z,25.66
2023-04-30T04:23:28.212Z,22.86
2023-04-30T04:24:59.735Z,25.33
2023-04-30T04:26:31.161Z,24.15
2023-04-30T04:28:02.362Z,23.12
2023-04-30T04:29:33.616Z,22.26
2023-04-30T04:31:05.163Z,25.40
2023-04-30T04:32:36.466Z,23.74
2023-04-30T04:34:07.736Z,25.94
2023-04-30T04:35:39.106Z,22.04
2023-04-30T04:37:10.448Z,23.36
2023-04-30T04:38:41.771Z,22.77
2023-04-30T04:40:13.000Z,22.45
2023-04-30T04:41:44.227Z,22.44
2023-04-30T04:43:15.572Z,23.23
2023-04-30T04:44:46.844Z,24.08
2023-04-30T04:46:18.139Z,23.70
2023-04-30T04:47:49.750Z,24.55
2023-04-30T04:49:21.025Z,24.11
2023-04-30T04:50:52.477Z,23.41
2023-04-30T04:52:24.054Z,24.64
2023-04-30T04:53:55.263Z,25.05
2023-04-30T04:55:26.494Z,26.01
2023-04-30T04:56:58.047Z,27.11
2023-04-30T04:58:29.414Z,27.10
2023-04-30T05:00:00.775Z,24.92
2023-04-30T05:01:32.254Z,25.30
2023-04-30T05:03:03.865Z,24.99
2023-04-30T05:04:35.509Z,25.60
2023-04-30T05:06:07.096Z,24.77
2023-04-30T05:07:38.818Z,26.28
2023-04-30T05:09:10.125Z,26.51
2023-04-30T05:10:41.535Z,25.54
2023-04-30T05:12:12.731Z,24.64
2023-04-30T05:13:44.083Z,25.31
2023-04-30T05:15:15.695Z,24.71
2023-04-30T05:16:47.152Z,24.82
2023-04-30T05:18:19.663Z,24.81
2023-04-30T05:19:50.917Z,24.01
2023-04-30T05:21:22.127Z,25.84
2023-04-30T05:22:53.374Z,26.22
2023-04-30T05:24:24.706Z,22.97
2023-04-30T05:25:56.208Z,22.10
2023-04-30T05:27:27.668Z,24.71
2023-04-30T05:28:59.040Z,22.79
2023-04-30T05:30:30.277Z,25.01
2023-04-30T05:32:01.725Z,22.61
2023-04-30T05:33:33.058Z,23.35
2023-04-30T05:35:04.383Z,24.19
2023-04-30T05:36:35.844Z,23.22
2023-04-30T05:38:07.061Z,23.35
2023-04-30T05:39:38.303Z,23.69
2023-04-30T05:41:09.609Z,22.94
2023-04-30T05:42:41.179Z,23.28
2023-04-30T05:44:12.556Z,21.77
2023-04-30T05:45:44.078Z,22.97
2023-04-30T05:47:15.341Z,25.14
2023-04-30T05:48:46.574Z,21.31
2023-04-30T05:50:18.168Z,22.34
2023-04-30T05:51:49.445Z,21.47
2023-04-30T05:53:21.053Z,21.76
2023-04-30T05:54:52.291Z,20.48
2023-04-30T05:56:23.641Z,21.46
2023-04-30T05:57:54.946Z,20.17
2023-04-30T05:59:26.280Z,22.24
2023-04-30T06:00:57.528Z,22.77
2023-04-30T06:02:28.896Z,21.95
2023-04-30T06:04:00.506Z,21.74
2023-04-30T06:05:31.825Z,20.63
2023-04-30T06:07:03.574Z,20.82
2023-04-30T06:08:39.855Z,20.65
2023-04-30T06:10:28.857Z,19.35
2023-04-30T06:12:00.556Z,19.32
2023-04-30T06:13:33.429Z,20.27
2023-04-30T06:15:04.873Z,21.24
2023-04-30T06:17:08.795Z,22.42
2023-04-30T06:18:40.172Z,22.85
2023-04-30T06:20:11.991Z,21.00
2023-04-30T06:21:43.342Z,21.25
2023-04-30T06:23:19.872Z,20.10
2023-04-30T06:24:51.219Z,21.24
2023-04-30T06:26:22.742Z,19.95
2023-04-30T06:27:54.075Z,18.88
2023-04-30T06:29:25.494Z,18.77
2023-04-30T06:30:56.986Z,20.88
2023-04-30T06:32:28.627Z,17.60
2023-04-30T06:34:00.096Z,16.84
2023-04-30T06:35:31.545Z,17.96
2023-04-30T06:37:02.827Z,19.61
2023-04-30T06:38:34.097Z,20.29
2023-04-30T06:40:05.616Z,18.75
2023-04-30T06:41:36.885Z,20.15
2023-04-30T06:43:08.126Z,17.84
2023-04-30T06:44:39.449Z,18.01
2023-04-30T06:46:34.576Z,18.46
2023-04-30T06:48:06.014Z,18.99
2023-04-30T06:49:37.520Z,20.93
2023-04-30T06:51:10.479Z,18.94
2023-04-30T06:52:42.271Z,19.18
2023-04-30T06:54:13.663Z,19.74
2023-04-30T06:55:45.012Z,19.23
2023-04-30T06:57:16.299Z,19.66
2023-04-30T06:58:47.730Z,21.67
2023-04-30T07:00:19.071Z,19.50
2023-04-30T07:01:50.749Z,20.06
2023-04-30T07:03:22.254Z,19.35
2023-04-30T07:04:53.738Z,18.38
2023-04-30T07:06:26.379Z,18.39
2023-04-30T07:07:57.945Z,20.28
2023-04-30T07:09:29.374Z,19.29
2023-04-30T07:11:00.785Z,18.91
2023-04-30T07:12:32.049Z,20.44
2023-04-30T07:14:03.494Z,19.78
2023-04-30T07:15:34.870Z,18.41
2023-04-30T07:17:06.234Z,17.73
2023-04-30T07:18:37.564Z,17.89
2023-04-30T07:20:09.756Z,17.68
2023-04-30T07:21:41.068Z,17.59
2023-04-30T07:23:12.602Z,17.72
2023-04-30T07:24:44.035Z,19.72
2023-04-30T07:26:15.268Z,16.79
2023-04-30T07:27:46.670Z,17.26
2023-04-30T07:29:17.995Z,17.15
2023-04-30T07:30:49.252Z,18.77
2023-04-30T07:32:20.663Z,16.59
2023-04-30T07:33:51.909Z,17.69
2023-04-30T07:35:23.308Z,19.33
2023-04-30T07:36:54.823Z,18.71
2023-04-30T07:38:26.124Z,19.09
2023-04-30T07:39:57.595Z,19.94
2023-04-30T07:41:28.983Z,18.07
2023-04-30T07:43:00.469Z,18.10
2023-04-30T07:44:31.809Z,18.69
2023-04-30T07:46:03.156Z,17.64
2023-04-30T07:47:34.980Z,17.38
2023-04-30T07:49:06.337Z,17.46
2023-04-30T07:50:37.618Z,16.14
2023-04-30T07:52:08.847Z,17.07
2023-04-30T07:53:40.301Z,16.14
2023-04-30T07:55:11.872Z,19.24
2023-04-30T07:56:43.230Z,18.46
2023-04-30T07:58:14.740Z,19.85
2023-04-30T07:59:46.235Z,17.61
2023-04-30T08:01:17.454Z,16.54
2023-04-30T08:02:49.187Z,16.04
2023-04-30T08:04:20.834Z,15.73
2023-04-30T08:05:52.370Z,16.92
2023-04-30T08:07:24.223Z,16.26
2023-04-30T08:08:58.035Z,17.37
2023-04-30T08:10:33.701Z,17.16
2023-04-30T08:12:09.729Z,16.62
2023-04-30T08:13:43.607Z,16.62
2023-04-30T08:15:17.398Z,15.59
2023-04-30T08:16:52.183Z,15.69
2023-04-30T08:18:26.948Z,15.03
2023-04-30T08:20:02.246Z,15.35
2023-04-30T08:21:35.732Z,15.14
2023-04-30T08:23:10.661Z,14.16
2023-04-30T08:24:48.126Z,13.68
2023-04-30T08:26:23.138Z,12.85
2023-04-30T08:27:58.585Z,12.31
2023-04-30T08:29:33.046Z,12.55
2023-04-30T08:31:08.581Z,14.01
2023-04-30T08:32:43.202Z,12.47
2023-04-30T08:34:17.678Z,13.63
2023-04-30T08:35:52.123Z,13.13
2023-04-30T08:37:26.473Z,13.03
2023-04-30T08:39:00.032Z,12.89
2023-04-30T08:40:50.217Z,13.94
2023-04-30T08:42:27.494Z,13.74
2023-04-30T08:44:07.671Z,13.48
2023-04-30T08:45:43.323Z,13.98
2023-04-30T08:47:18.914Z,13.86
2023-04-30T08:48:54.352Z,17.17
2023-04-30T08:50:29.857Z,17.64
2023-04-30T08:52:05.077Z,14.27
2023-04-30T08:53:41.398Z,14.00
2023-04-30T08:55:15.940Z,13.87
2023-04-30T08:56:50.775Z,13.30
2023-04-30T08:58:25.349Z,15.31
2023-04-30T08:59:59.370Z,13.62
2023-04-30T09:01:34.105Z,14.54
2023-04-30T09:03:18.296Z,15.50
2023-04-30T09:04:53.937Z,13.42
2023-04-30T09:06:28.603Z,14.14
2023-04-30T09:08:04.533Z,13.19
2023-04-30T09:09:42.508Z,13.13
2023-04-30T09:11:17.928Z,12.02
2023-04-30T09:12:54.841Z,11.97
2023-04-30T09:14:30.472Z,11.20
2023-04-30T09:16:07.550Z,11.86
2023-04-30T09:17:42.133Z,11.97
2023-04-30T09:19:16.982Z,10.56
2023-04-30T09:20:51.524Z,11.82
2023-04-30T09:22:30.025Z,14.91
2023-04-30T09:24:06.422Z,13.30
2023-04-30T09:25:40.484Z,11.20
2023-04-30T09:27:14.279Z,12.69
2023-04-30T09:28:49.418Z,10.88
2023-04-30T09:30:26.455Z,11.45
2023-04-30T09:32:03.532Z,11.82
2023-04-30T09:33:39.327Z,10.68
2023-04-30T09:35:14.835Z,10.17
2023-04-30T09:36:48.634Z,11.12
2023-04-30T09:38:20.230Z,8.72
2023-04-30T09:39:51.735Z,9.18
2023-04-30T09:41:23.474Z,8.01
2023-04-30T09:42:55.240Z,7.99
2023-04-30T09:44:26.712Z,10.31
2023-04-30T09:45:58.518Z,8.94
2023-04-30T09:47:29.987Z,8.98
2023-04-30T09:49:01.391Z,10.58
2023-04-30T09:50:32.820Z,8.83
2023-04-30T09:52:04.086Z,7.29
2023-04-30T09:53:35.424Z,8.90
2023-04-30T09:55:07.128Z,8.38
2023-04-30T09:56:38.453Z,9.11
2023-04-30T09:58:09.978Z,9.43
2023-04-30T09:59:56.773Z,8.81
2023-04-30T10:01:28.521Z,8.63
2023-04-30T10:03:00.177Z,9.44
2023-04-30T10:04:31.824Z,8.77
2023-04-30T10:06:03.189Z,7.43
2023-04-30T10:07:34.877Z,9.29
2023-04-30T10:09:06.160Z,7.62
2023-04-30T10:10:37.436Z,9.55
2023-04-30T10:12:08.715Z,7.24
2023-04-30T10:13:40.130Z,6.69
2023-04-30T10:15:15.649Z,6.95
2023-04-30T10:16:47.011Z,7.70
2023-04-30T10:18:18.600Z,5.35
2023-04-30T10:19:49.895Z,5.14
2023-04-30T10:21:21.404Z,4.48
2023-04-30T10:22:52.784Z,3.64
2023-04-30T10:24:24.174Z,4.51
2023-04-30T10:25:55.662Z,4.01
2023-04-30T10:27:27.357Z,4.28
2023-04-30T10:28:59.051Z,4.63
2023-04-30T10:30:30.511Z,4.21
2023-04-30T10:32:01.937Z,4.37
2023-04-30T10:33:33.586Z,4.60
2023-04-30T10:35:05.077Z,5.21
2023-04-30T10:36:36.459Z,4.94
2023-04-30T10:38:07.874Z,4.20
2023-04-30T10:39:39.683Z,4.48
2023-04-30T10:41:11.495Z,4.22
2023-04-30T10:42:42.830Z,4.28
2023-04-30T10:44:14.366Z,4.43
2023-04-30T10:45:45.725Z,5.10
2023-04-30T10:47:17.607Z,4.64
2023-04-30T10:48:49.010Z,4.92
2023-04-30T10:50:20.572Z,5.83
2023-04-30T10:51:52.241Z,4.70
2023-04-30T10:53:23.609Z,5.04
2023-04-30T10:54:55.037Z,6.75
2023-04-30T10:56:26.452Z,6.36
2023-04-30T10:57:57.884Z,5.63
2023-04-30T10:59:29.224Z,6.11
2023-04-30T11:01:51.498Z,4.50
2023-04-30T11:03:23.051Z,6.09
2023-04-30T11:04:54.447Z,6.41
2023-04-30T11:06:26.099Z,6.84
2023-04-30T11:07:57.624Z,6.79
2023-04-30T11:09:29.003Z,6.33
2023-04-30T11:11:00.365Z,7.77
2023-04-30T11:12:31.947Z,6.47
2023-04-30T11:14:03.464Z,5.69
2023-04-30T11:15:34.907Z,6.69
2023-04-30T11:17:06.403Z,7.12
2023-04-30T11:18:37.792Z,6.96
2023-04-30T11:20:09.225Z,5.52
2023-04-30T11:21:40.757Z,5.31
2023-04-30T11:23:12.568Z,4.17
2023-04-30T11:24:44.059Z,6.60
2023-04-30T11:26:15.655Z,6.12
2023-04-30T11:27:47.113Z,5.16
2023-04-30T11:29:18.487Z,4.81
2023-04-30T11:30:50.511Z,4.02
2023-04-30T11:32:22.119Z,4.15
2023-04-30T11:33:53.526Z,4.98
2023-04-30T11:35:25.547Z,5.21
2023-04-30T11:37:09.086Z,5.84
2023-04-30T11:38:40.592Z,5.69
2023-04-30T11:40:12.049Z,6.05
2023-04-30T11:41:44.108Z,5.37
2023-04-30T11:43:15.622Z,4.54
2023-04-30T11:44:48.239Z,5.25
2023-04-30T11:46:19.763Z,5.01
2023-04-30T11:47:51.250Z,4.76
2023-04-30T11:49:22.912Z,4.72
2023-04-30T11:50:54.435Z,4.48
2023-04-30T11:52:26.009Z,4.02
2023-04-30T11:53:57.508Z,4.38
2023-04-30T11:55:29.635Z,5.77
2023-04-30T11:57:01.136Z,5.03
2023-04-30T11:58:32.796Z,4.04
2023-04-30T12:00:04.226Z,4.87
2023-04-30T12:01:35.690Z,4.75
2023-04-30T12:03:07.391Z,4.82
2023-04-30T12:04:39.221Z,4.93
2023-04-30T12:06:10.745Z,4.68
2023-04-30T12:07:42.201Z,4.27
2023-04-30T12:09:13.704Z,5.53
2023-04-30T12:10:45.270Z,5.47
2023-04-30T12:12:16.923Z,5.69
2023-04-30T12:13:48.655Z,4.10
2023-04-30T12:15:20.071Z,4.70
2023-04-30T12:16:51.929Z,4.60
2023-04-30T12:18:23.544Z,3.94
2023-04-30T12:19:55.347Z,4.91
2023-04-30T12:21:26.981Z,5.83
2023-04-30T12:22:58.913Z,5.39
2023-04-30T12:24:30.546Z,6.60
2023-04-30T12:26:02.007Z,5.56
2023-04-30T12:27:33.434Z,6.44
2023-04-30T12:29:04.910Z,5.67
2023-04-30T12:30:36.466Z,4.91
2023-04-30T12:32:08.098Z,4.31
2023-04-30T12:33:39.990Z,4.03
2023-04-30T12:35:11.498Z,4.76
2023-04-30T12:36:43.405Z,5.01
2023-04-30T12:38:15.094Z,4.51
2023-04-30T12:39:46.579Z,4.28
2023-04-30T12:41:18.041Z,4.19
2023-04-30T12:42:49.600Z,3.89
2023-04-30T12:44:21.214Z,4.26
2023-04-30T12:45:53.367Z,4.52
2023-04-30T12:47:25.047Z,5.52
2023-04-30T12:48:56.891Z,3.90
2023-04-30T12:50:29.660Z,3.19
2023-04-30T12:52:01.271Z,4.65
2023-04-30T12:53:32.885Z,5.27
2023-04-30T12:55:04.733Z,4.66
2023-04-30T12:56:36.591Z,5.58
2023-04-30T12:58:08.029Z,5.22
2023-04-30T12:59:39.552Z,4.90
2023-04-30T13:01:11.299Z,5.52
2023-04-30T13:02:43.175Z,4.59
2023-04-30T13:04:14.979Z,3.32
2023-04-30T13:05:46.486Z,4.37
2023-04-30T13:07:18.094Z,3.24
2023-04-30T13:08:58.380Z,3.52
2023-04-30T13:10:32.424Z,3.51
2023-04-30T13:12:04.133Z,4.44
2023-04-30T13:13:35.621Z,3.99
2023-04-30T13:15:07.171Z,5.34
2023-04-30T13:16:40.315Z,4.70
2023-04-30T13:18:12.118Z,4.52
2023-04-30T13:19:43.665Z,3.07
2023-04-30T13:21:15.273Z,3.14
2023-04-30T13:22:47.161Z,3.41
2023-04-30T13:24:18.627Z,3.51
2023-04-30T13:25:50.255Z,3.66
2023-04-30T13:27:21.792Z,4.52
2023-04-30T13:28:53.672Z,4.40
2023-04-30T13:30:25.292Z,3.18
2023-04-30T13:31:56.982Z,3.11
2023-04-30T13:33:28.771Z,3.52
2023-04-30T13:35:00.368Z,4.23
2023-04-30T13:36:31.859Z,3.85
2023-04-30T13:38:03.418Z,4.45
2023-04-30T13:39:35.037Z,3.70
2023-04-30T13:41:06.732Z,3.86
2023-04-30T13:42:38.270Z,4.25
2023-04-30T13:44:09.863Z,3.85
2023-04-30T13:45:41.402Z,4.10
2023-04-30T13:47:12.972Z,3.91
2023-04-30T13:48:44.478Z,3.90
2023-04-30T13:50:15.974Z,3.68
2023-04-30T13:51:47.617Z,3.32
2023-04-30T13:53:19.187Z,3.03
2023-04-30T13:54:50.786Z,3.77
2023-04-30T13:56:22.220Z,2.95
2023-04-30T13:57:53.740Z,3.96
2023-04-30T13:59:25.253Z,3.06
2023-04-30T14:00:56.881Z,3.05
2023-04-30T14:02:28.870Z,3.48
2023-04-30T14:04:00.471Z,2.86
2023-04-30T14:05:32.057Z,2.84
2023-04-30T14:07:03.710Z,3.14
2023-04-30T14:08:35.433Z,3.02
2023-04-30T14:10:07.079Z,3.81
2023-04-30T14:11:38.564Z,3.12
2023-04-30T14:13:10.167Z,3.84
2023-04-30T14:14:41.742Z,2.66
2023-04-30T14:16:13.413Z,2.66
2023-04-30T14:17:45.035Z,2.70
2023-04-30T14:19:16.651Z,1.96
2023-04-30T14:20:48.131Z,2.55
2023-04-30T14:22:19.665Z,2.86
2023-04-30T14:23:51.150Z,2.93
2023-04-30T14:25:22.878Z,3.02
2023-04-30T14:26:54.356Z,3.27
2023-04-30T14:28:26.070Z,2.83
2023-04-30T14:29:57.817Z,2.47
2023-04-30T14:31:29.437Z,2.21
2023-04-30T14:33:01.204Z,2.47
2023-04-30T14:34:32.961Z,2.70
2023-04-30T14:36:04.510Z,3.20
2023-04-30T14:37:36.073Z,2.07
2023-04-30T14:39:07.762Z,2.62
2023-04-30T14:40:39.266Z,2.71
2023-04-30T14:42:10.764Z,1.80
2023-04-30T14:43:42.953Z,2.76
2023-04-30T14:45:14.548Z,2.01
2023-04-30T14:46:46.275Z,1.79
2023-04-30T14:48:17.994Z,2.73
2023-04-30T14:49:49.578Z,4.14
2023-04-30T14:51:21.199Z,3.12
2023-04-30T14:52:52.712Z,3.65
2023-04-30T14:54:24.237Z,3.13
2023-04-30T14:55:55.719Z,3.11
2023-04-30T14:57:27.265Z,3.73
2023-04-30T14:58:59.456Z,7.18
2023-04-30T15:00:31.002Z,3.62
2023-04-30T15:02:02.548Z,3.54
2023-04-30T15:03:34.361Z,4.17
2023-04-30T15:05:06.327Z,2.94
2023-04-30T15:06:37.940Z,2.82
2023-04-30T15:08:09.570Z,3.30
2023-04-30T15:09:41.140Z,3.33
2023-04-30T15:11:12.685Z,2.89
2023-04-30T15:12:44.231Z,2.62
2023-04-30T15:14:15.869Z,2.92
2023-04-30T15:15:47.583Z,2.49
2023-04-30T15:17:19.268Z,2.11
2023-04-30T15:18:50.959Z,2.37
2023-04-30T15:20:22.445Z,2.33
2023-04-30T15:21:53.950Z,3.58
2023-04-30T15:23:25.478Z,2.31
2023-04-30T15:24:57.216Z,2.15
2023-04-30T15:26:28.762Z,1.83
2023-04-30T15:28:00.547Z,2.40
2023-04-30T15:29:33.171Z,3.05
2023-04-30T15:31:05.381Z,3.58
2023-04-30T15:32:37.173Z,3.17
2023-04-30T15:34:08.840Z,3.59
2023-04-30T15:35:40.407Z,3.06
2023-04-30T15:37:12.063Z,3.03
2023-04-30T15:38:43.600Z,2.11
2023-04-30T15:40:15.354Z,2.94
2023-04-30T15:41:47.390Z,2.62
2023-04-30T15:43:19.095Z,2.54
2023-04-30T15:44:51.819Z,2.93
2023-04-30T15:46:23.387Z,1.89
2023-04-30T15:47:55.240Z,1.87
2023-04-30T15:49:26.798Z,2.12
2023-04-30T15:50:58.633Z,2.20
2023-04-30T15:52:30.427Z,1.87
2023-04-30T15:54:02.012Z,2.08
2023-04-30T15:55:33.645Z,2.85
2023-04-30T15:57:05.217Z,2.11
2023-04-30T15:58:36.752Z,2.38
2023-04-30T16:00:08.354Z,2.76
2023-04-30T16:01:40.175Z,2.51
2023-04-30T16:03:11.928Z,2.70
2023-04-30T16:04:43.657Z,3.39
2023-04-30T16:06:15.194Z,2.27
2023-04-30T16:07:46.741Z,1.78
2023-04-30T16:09:18.354Z,2.41
2023-04-30T16:10:49.961Z,2.42
2023-04-30T16:12:21.685Z,1.87
2023-04-30T16:13:53.261Z,2.67
2023-04-30T16:15:25.902Z,3.87
2023-04-30T16:16:57.516Z,3.74
2023-04-30T16:18:29.070Z,5.31
2023-04-30T16:20:01.208Z,2.56
2023-04-30T16:21:38.086Z,3.66
2023-04-30T16:23:09.821Z,3.02
2023-04-30T16:24:41.698Z,2.87
2023-04-30T16:26:13.138Z,3.69
2023-04-30T16:27:44.958Z,2.26
2023-04-30T16:29:16.736Z,3.42
2023-04-30T16:30:48.452Z,3.09
2023-04-30T16:32:20.017Z,3.42
2023-04-30T16:33:51.567Z,2.61
2023-04-30T16:35:23.131Z,3.10
2023-04-30T16:36:54.675Z,3.94
2023-04-30T16:38:26.122Z,3.24
2023-04-30T16:39:58.058Z,3.63
2023-04-30T16:41:29.712Z,3.52
2023-04-30T16:43:01.208Z,4.24
2023-04-30T16:46:38.192Z,3.22
2023-04-30T16:48:09.981Z,4.45
2023-04-30T16:49:41.577Z,3.81
2023-04-30T16:51:13.020Z,4.68
2023-04-30T16:52:44.477Z,3.97
2023-04-30T16:54:16.063Z,3.78
2023-04-30T16:55:47.883Z,3.61
2023-04-30T16:57:20.602Z,3.61
2023-04-30T16:58:52.136Z,3.32
2023-04-30T17:00:23.702Z,3.15
2023-04-30T17:01:55.403Z,3.18
2023-04-30T17:03:26.890Z,3.62
2023-04-30T17:05:00.316Z,2.57
2023-04-30T17:06:31.936Z,3.42
2023-04-30T17:08:03.995Z,3.79
2023-04-30T17:09:35.503Z,2.50
2023-04-30T17:11:08.264Z,4.15
2023-04-30T17:12:39.758Z,4.12
2023-04-30T17:14:11.254Z,3.19
2023-04-30T17:15:42.800Z,3.89
2023-04-30T17:17:14.229Z,3.19
2023-04-30T17:18:45.795Z,3.98
2023-04-30T17:20:17.488Z,3.68
2023-04-30T17:21:49.234Z,5.74
2023-04-30T17:23:20.673Z,3.22
2023-04-30T17:25:12.067Z,4.57
2023-04-30T17:26:43.491Z,5.16
2023-04-30T17:28:14.930Z,3.97
2023-04-30T17:29:46.407Z,3.77
2023-04-30T17:31:17.851Z,4.14
2023-04-30T17:32:49.456Z,3.08
2023-04-30T17:34:21.132Z,4.10
2023-04-30T17:35:52.724Z,3.40
2023-04-30T17:37:24.149Z,5.65
2023-04-30T17:38:56.070Z,4.18
2023-04-30T17:40:27.781Z,3.60
2023-04-30T17:41:59.301Z,4.48
2023-04-30T17:43:30.794Z,3.84
2023-04-30T17:45:02.517Z,3.32
2023-04-30T17:46:34.240Z,3.18
2023-04-30T17:48:05.961Z,2.80
2023-04-30T17:49:37.814Z,3.84
2023-04-30T17:51:09.184Z,3.83
2023-04-30T17:52:40.765Z,3.27
2023-04-30T17:54:17.284Z,4.52
2023-04-30T17:55:49.130Z,3.46
2023-04-30T17:57:20.793Z,2.92
2023-04-30T17:58:52.365Z,4.45
2023-04-30T18:00:23.819Z,4.94
2023-04-30T18:01:55.257Z,3.97
2023-04-30T18:03:26.794Z,4.62
2023-04-30T18:04:58.249Z,4.04
2023-04-30T18:06:30.008Z,3.98
2023-04-30T18:08:01.709Z,5.22
2023-04-30T18:09:33.294Z,5.45
2023-04-30T18:11:05.227Z,4.65
2023-04-30T18:12:36.681Z,4.34
2023-04-30T18:14:08.134Z,4.64
2023-04-30T18:15:39.575Z,4.76
2023-04-30T18:17:11.451Z,4.24
2023-04-30T18:18:42.826Z,5.54
2023-04-30T18:20:14.494Z,5.07
2023-04-30T18:21:45.859Z,4.09
2023-04-30T18:23:17.225Z,5.18
2023-04-30T18:24:48.675Z,5.08
2023-04-30T18:26:20.783Z,5.13
2023-04-30T18:27:52.173Z,3.54
2023-04-30T18:29:23.556Z,4.44
2023-04-30T18:30:54.959Z,4.20
2023-04-30T18:32:31.479Z,4.81
2023-04-30T18:34:02.904Z,5.18
2023-04-30T18:35:35.056Z,6.03
2023-04-30T18:37:06.413Z,6.19
2023-04-30T18:38:37.767Z,4.18
2023-04-30T18:40:14.159Z,5.92
2023-04-30T18:41:45.552Z,4.99
2023-04-30T18:43:17.101Z,5.08
2023-04-30T18:44:48.574Z,4.93
2023-04-30T18:46:20.144Z,4.87
2023-04-30T18:47:51.642Z,5.09
2023-04-30T18:49:23.173Z,5.28
2023-04-30T18:50:54.699Z,6.27
2023-04-30T18:52:26.153Z,5.44
2023-04-30T18:53:57.548Z,4.39
2023-04-30T18:55:28.932Z,7.99
2023-04-30T18:57:00.581Z,6.96
2023-04-30T18:58:32.071Z,4.85
2023-04-30T19:00:03.408Z,6.43
2023-04-30T19:01:36.356Z,6.27
2023-04-30T19:03:07.865Z,6.51
2023-04-30T19:04:39.384Z,5.98
2023-04-30T19:06:11.086Z,7.09
2023-04-30T19:07:42.514Z,7.91
2023-04-30T19:09:13.955Z,7.88
2023-04-30T19:10:45.431Z,6.64
2023-04-30T19:12:16.870Z,6.30
2023-04-30T19:13:48.205Z,8.46
2023-04-30T19:15:20.806Z,8.25
2023-04-30T19:16:52.133Z,7.42
2023-04-30T19:18:33.573Z,6.24
2023-04-30T19:20:06.253Z,6.74
2023-04-30T19:23:34.213Z,7.20
2023-04-30T19:25:10.616Z,6.60
2023-04-30T19:26:42.054Z,7.76
2023-04-30T19:28:13.333Z,5.90
2023-04-30T19:29:45.163Z,5.81
2023-04-30T19:31:16.793Z,6.72
2023-04-30T19:32:51.029Z,7.15
2023-04-30T19:34:22.422Z,6.57
2023-04-30T19:35:58.960Z,7.97
2023-04-30T19:37:30.451Z,6.19
2023-04-30T19:39:01.943Z,6.79
2023-04-30T19:40:33.528Z,5.97
2023-04-30T19:42:05.020Z,9.54
2023-04-30T19:43:36.531Z,6.63
2023-04-30T19:46:10.427Z,5.70
2023-04-30T19:47:42.114Z,7.56
2023-04-30T19:49:13.569Z,7.75
2023-04-30T19:50:45.063Z,6.31
2023-04-30T19:52:16.437Z,6.64
2023-04-30T19:53:48.003Z,7.02
2023-04-30T19:55:19.952Z,6.74
2023-04-30T19:56:51.542Z,8.43
2023-04-30T19:58:22.942Z,6.98
2023-04-30T19:59:54.418Z,7.74
2023-04-30T20:01:25.951Z,8.36
2023-04-30T20:02:57.904Z,8.54
2023-04-30T20:04:29.576Z,6.90
2023-04-30T20:06:00.951Z,8.07
2023-04-30T20:07:32.311Z,8.62
2023-04-30T20:09:04.793Z,7.12
2023-04-30T20:10:36.541Z,8.24
2023-04-30T20:12:07.845Z,7.63